Mont Vernon, New Hampshire
Current Conditions -  °F | °C
As of 4:51 PM on Thursday 18 Dec 2014 (Local Time) from KASH Reporting Station
Broken Clouds Broken Clouds  
Wind Chill: 34°   Ceiling: 3500
Heat Index: 39°   Visibility: 10mi
Dew Point: 28°   Wind: 7mph
Humidity: 65%   Direction: NA
Pressure: 29.82"   Gusts: NA
Location:  42.89°N, 71.67°W
Report Text: KASH 182151Z VRB06KT 10SM BKN035 04/M02 A2982 RMK AO2 T00381022 SLP352
Loading
Personal Weather Stations






























Interactive Weather Map New forecast layout! Learn more

10-Day Weather Forecast

Advertisements
Track Severe Weather on mobile